sensor_id;sensor_type;location;lat;lon;timestamp;P1;durP1;ratioP1;P2;durP2;ratioP2
4961;SDS011;2496;52.468;13.342;2023-08-31T00:02:16;5.37;;;4.87;;
4961;SDS011;2496;52.468;13.342;2023-08-31T00:04:44;6.50;;;4.20;;
4961;SDS011;2496;52.468;13.342;2023-08-31T00:07:11;5.40;;;4.03;;
4961;SDS011;2496;52.468;13.342;2023-08-31T00:09:39;5.30;;;3.80;;
4961;SDS011;2496;52.468;13.342;2023-08-31T00:12:06;6.73;;;4.27;;
4961;SDS011;2496;52.468;13.342;2023-08-31T00:14:33;5.20;;;4.43;;
4961;SDS011;2496;52.468;13.342;2023-08-31T00:17:04;4.87;;;4.10;;
4961;SDS011;2496;52.468;13.342;2023-08-31T00:19:31;8.73;;;4.23;;
4961;SDS011;2496;52.468;13.342;2023-08-31T00:21:58;4.27;;;3.73;;
4961;SDS011;2496;52.468;13.342;2023-08-31T00:24:25;5.60;;;3.93;;
4961;SDS011;2496;52.468;13.342;2023-08-31T00:26:58;4.40;;;4.00;;
4961;SDS011;2496;52.468;13.342;2023-08-31T00:29:26;5.67;;;3.93;;
4961;SDS011;2496;52.468;13.342;2023-08-31T00:31:55;4.07;;;3.60;;
4961;SDS011;2496;52.468;13.342;2023-08-31T00:34:23;4.17;;;3.80;;
4961;SDS011;2496;52.468;13.342;2023-08-31T00:36:50;4.17;;;3.77;;
4961;SDS011;2496;52.468;13.342;2023-08-31T00:39:18;6.07;;;4.40;;
4961;SDS011;2496;52.468;13.342;2023-08-31T00:41:46;4.77;;;4.00;;
4961;SDS011;2496;52.468;13.342;2023-08-31T00:44:13;6.23;;;3.90;;
4961;SDS011;2496;52.468;13.342;2023-08-31T00:46:40;4.23;;;3.53;;
4961;SDS011;2496;52.468;13.342;2023-08-31T00:49:08;5.43;;;3.30;;
4961;SDS011;2496;52.468;13.342;2023-08-31T00:51:36;4.50;;;3.67;;
4961;SDS011;2496;52.468;13.342;2023-08-31T00:54:04;4.20;;;3.77;;
4961;SDS011;2496;52.468;13.342;2023-08-31T00:56:31;4.93;;;3.50;;
4961;SDS011;2496;52.468;13.342;2023-08-31T00:58:58;5.90;;;4.07;;
4961;SDS011;2496;52.468;13.342;2023-08-31T01:01:27;5.33;;;3.27;;
4961;SDS011;2496;52.468;13.342;2023-08-31T01:04:03;4.47;;;3.70;;
4961;SDS011;2496;52.468;13.342;2023-08-31T01:06:39;10.83;;;4.40;;
4961;SDS011;2496;52.468;13.342;2023-08-31T01:09:22;6.70;;;3.80;;
4961;SDS011;2496;52.468;13.342;2023-08-31T01:11:56;3.77;;;3.20;;
4961;SDS011;2496;52.468;13.342;2023-08-31T01:14:23;4.30;;;3.53;;
4961;SDS011;2496;52.468;13.342;2023-08-31T01:16:51;3.80;;;3.40;;
4961;SDS011;2496;52.468;13.342;2023-08-31T01:19:26;4.87;;;3.73;;
4961;SDS011;2496;52.468;13.342;2023-08-31T01:22:00;4.00;;;3.30;;
4961;SDS011;2496;52.468;13.342;2023-08-31T01:24:31;4.27;;;3.87;;
4961;SDS011;2496;52.468;13.342;2023-08-31T01:26:59;3.43;;;3.13;;
4961;SDS011;2496;52.468;13.342;2023-08-31T01:29:26;4.20;;;3.80;;
4961;SDS011;2496;52.468;13.342;2023-08-31T01:31:56;5.93;;;4.10;;
4961;SDS011;2496;52.468;13.342;2023-08-31T01:34:23;4.77;;;4.37;;
4961;SDS011;2496;52.468;13.342;2023-08-31T01:36:51;5.53;;;4.17;;
4961;SDS011;2496;52.468;13.342;2023-08-31T01:39:21;4.80;;;3.97;;
4961;SDS011;2496;52.468;13.342;2023-08-31T01:41:54;5.30;;;3.90;;
4961;SDS011;2496;52.468;13.342;2023-08-31T01:44:22;5.00;;;3.43;;
4961;SDS011;2496;52.468;13.342;2023-08-31T01:46:51;4.17;;;3.40;;
4961;SDS011;2496;52.468;13.342;2023-08-31T01:49:19;3.50;;;3.20;;
4961;SDS011;2496;52.468;13.342;2023-08-31T01:51:46;3.67;;;3.10;;
4961;SDS011;2496;52.468;13.342;2023-08-31T01:54:14;3.23;;;2.93;;
4961;SDS011;2496;52.468;13.342;2023-08-31T01:56:41;3.30;;;3.00;;
4961;SDS011;2496;52.468;13.342;2023-08-31T01:59:09;5.70;;;3.60;;
4961;SDS011;2496;52.468;13.342;2023-08-31T02:01:37;4.87;;;3.77;;
4961;SDS011;2496;52.468;13.342;2023-08-31T02:04:04;4.30;;;3.90;;
4961;SDS011;2496;52.468;13.342;2023-08-31T02:06:32;3.60;;;3.30;;
4961;SDS011;2496;52.468;13.342;2023-08-31T02:08:59;4.17;;;3.60;;
4961;SDS011;2496;52.468;13.342;2023-08-31T02:11:26;4.20;;;3.80;;
4961;SDS011;2496;52.468;13.342;2023-08-31T02:13:53;3.43;;;3.07;;
4961;SDS011;2496;52.468;13.342;2023-08-31T02:16:22;2.20;;;2.00;;
4961;SDS011;2496;52.468;13.342;2023-08-31T02:18:49;3.70;;;2.83;;
4961;SDS011;2496;52.468;13.342;2023-08-31T02:21:16;3.60;;;2.80;;
4961;SDS011;2496;52.468;13.342;2023-08-31T02:23:45;3.60;;;2.77;;
4961;SDS011;2496;52.468;13.342;2023-08-31T02:26:12;2.83;;;2.40;;
4961;SDS011;2496;52.468;13.342;2023-08-31T02:28:39;3.03;;;2.57;;
4961;SDS011;2496;52.468;13.342;2023-08-31T02:31:06;4.50;;;2.40;;
4961;SDS011;2496;52.468;13.342;2023-08-31T02:33:35;4.10;;;3.07;;
4961;SDS011;2496;52.468;13.342;2023-08-31T02:36:02;3.27;;;2.70;;
4961;SDS011;2496;52.468;13.342;2023-08-31T02:38:29;3.40;;;2.47;;
4961;SDS011;2496;52.468;13.342;2023-08-31T02:40:57;2.80;;;2.40;;
4961;SDS011;2496;52.468;13.342;2023-08-31T02:43:24;2.63;;;2.13;;
4961;SDS011;2496;52.468;13.342;2023-08-31T02:45:58;2.73;;;2.50;;
4961;SDS011;2496;52.468;13.342;2023-08-31T02:48:25;3.70;;;2.83;;
4961;SDS011;2496;52.468;13.342;2023-08-31T02:50:56;4.20;;;2.87;;
4961;SDS011;2496;52.468;13.342;2023-08-31T02:53:23;3.50;;;2.73;;
4961;SDS011;2496;52.468;13.342;2023-08-31T02:55:50;4.57;;;2.60;;
4961;SDS011;2496;52.468;13.342;2023-08-31T02:58:18;3.43;;;2.87;;
4961;SDS011;2496;52.468;13.342;2023-08-31T03:00:45;8.20;;;2.90;;
4961;SDS011;2496;52.468;13.342;2023-08-31T03:03:13;3.60;;;2.93;;
4961;SDS011;2496;52.468;13.342;2023-08-31T03:05:40;2.90;;;2.33;;
4961;SDS011;2496;52.468;13.342;2023-08-31T03:08:09;2.30;;;2.10;;
4961;SDS011;2496;52.468;13.342;2023-08-31T03:10:37;2.63;;;2.40;;
4961;SDS011;2496;52.468;13.342;2023-08-31T03:13:04;4.03;;;2.57;;
4961;SDS011;2496;52.468;13.342;2023-08-31T03:15:32;2.87;;;2.57;;
4961;SDS011;2496;52.468;13.342;2023-08-31T03:18:00;3.23;;;2.70;;
4961;SDS011;2496;52.468;13.342;2023-08-31T03:20:27;5.17;;;2.73;;
4961;SDS011;2496;52.468;13.342;2023-08-31T03:22:54;4.00;;;2.80;;
4961;SDS011;2496;52.468;13.342;2023-08-31T03:25:23;2.77;;;2.50;;
4961;SDS011;2496;52.468;13.342;2023-08-31T03:27:50;3.03;;;2.43;;
4961;SDS011;2496;52.468;13.342;2023-08-31T03:30:17;2.53;;;2.27;;
4961;SDS011;2496;52.468;13.342;2023-08-31T03:32:45;3.60;;;2.70;;
4961;SDS011;2496;52.468;13.342;2023-08-31T03:35:12;4.27;;;2.67;;
4961;SDS011;2496;52.468;13.342;2023-08-31T03:37:39;4.03;;;2.70;;
4961;SDS011;2496;52.468;13.342;2023-08-31T03:40:07;7.63;;;2.63;;
4961;SDS011;2496;52.468;13.342;2023-08-31T03:42:36;2.93;;;2.50;;
4961;SDS011;2496;52.468;13.342;2023-08-31T03:45:03;3.50;;;2.90;;
4961;SDS011;2496;52.468;13.342;2023-08-31T03:47:31;3.43;;;2.90;;
4961;SDS011;2496;52.468;13.342;2023-08-31T03:49:58;3.37;;;3.03;;
4961;SDS011;2496;52.468;13.342;2023-08-31T03:52:25;3.50;;;3.07;;
4961;SDS011;2496;52.468;13.342;2023-08-31T03:54:53;3.33;;;2.87;;
4961;SDS011;2496;52.468;13.342;2023-08-31T03:57:20;5.60;;;3.40;;
4961;SDS011;2496;52.468;13.342;2023-08-31T03:59:49;3.50;;;2.80;;
4961;SDS011;2496;52.468;13.342;2023-08-31T04:02:16;3.50;;;3.20;;
4961;SDS011;2496;52.468;13.342;2023-08-31T04:04:43;4.93;;;2.97;;
4961;SDS011;2496;52.468;13.342;2023-08-31T04:07:10;5.63;;;4.03;;
4961;SDS011;2496;52.468;13.342;2023-08-31T04:09:37;5.30;;;3.90;;
4961;SDS011;2496;52.468;13.342;2023-08-31T04:12:05;5.07;;;4.00;;
4961;SDS011;2496;52.468;13.342;2023-08-31T04:14:32;4.97;;;4.47;;
4961;SDS011;2496;52.468;13.342;2023-08-31T04:17:01;5.43;;;4.07;;
4961;SDS011;2496;52.468;13.342;2023-08-31T04:19:30;10.03;;;4.53;;
4961;SDS011;2496;52.468;13.342;2023-08-31T04:21:57;5.53;;;4.03;;
4961;SDS011;2496;52.468;13.342;2023-08-31T04:24:24;5.93;;;4.60;;
4961;SDS011;2496;52.468;13.342;2023-08-31T04:26:51;7.10;;;5.07;;
4961;SDS011;2496;52.468;13.342;2023-08-31T04:29:19;6.70;;;5.23;;
4961;SDS011;2496;52.468;13.342;2023-08-31T04:31:46;4.80;;;4.27;;
4961;SDS011;2496;52.468;13.342;2023-08-31T04:34:14;7.90;;;4.70;;
4961;SDS011;2496;52.468;13.342;2023-08-31T04:36:42;6.90;;;4.93;;
4961;SDS011;2496;52.468;13.342;2023-08-31T04:39:09;5.67;;;4.97;;
4961;SDS011;2496;52.468;13.342;2023-08-31T04:41:36;6.27;;;5.43;;
4961;SDS011;2496;52.468;13.342;2023-08-31T04:44:03;7.40;;;4.83;;
4961;SDS011;2496;52.468;13.342;2023-08-31T04:46:31;7.17;;;5.10;;
4961;SDS011;2496;52.468;13.342;2023-08-31T04:48:59;5.20;;;4.70;;
4961;SDS011;2496;52.468;13.342;2023-08-31T04:51:31;6.77;;;5.40;;
4961;SDS011;2496;52.468;13.342;2023-08-31T04:53:59;6.10;;;4.93;;
4961;SDS011;2496;52.468;13.342;2023-08-31T04:56:29;7.37;;;5.13;;
4961;SDS011;2496;52.468;13.342;2023-08-31T04:58:57;6.60;;;5.90;;
4961;SDS011;2496;52.468;13.342;2023-08-31T05:01:24;8.97;;;5.20;;
4961;SDS011;2496;52.468;13.342;2023-08-31T05:03:51;5.60;;;5.10;;
4961;SDS011;2496;52.468;13.342;2023-08-31T05:06:19;6.83;;;5.47;;
4961;SDS011;2496;52.468;13.342;2023-08-31T05:08:48;9.40;;;6.00;;
4961;SDS011;2496;52.468;13.342;2023-08-31T05:11:15;8.93;;;6.03;;
4961;SDS011;2496;52.468;13.342;2023-08-31T05:13:42;9.30;;;6.77;;
4961;SDS011;2496;52.468;13.342;2023-08-31T05:16:09;7.50;;;6.20;;
4961;SDS011;2496;52.468;13.342;2023-08-31T05:18:37;11.83;;;6.70;;
4961;SDS011;2496;52.468;13.342;2023-08-31T05:21:05;9.77;;;6.70;;
4961;SDS011;2496;52.468;13.342;2023-08-31T05:23:33;8.70;;;7.07;;
4961;SDS011;2496;52.468;13.342;2023-08-31T05:26:01;7.97;;;6.70;;
4961;SDS011;2496;52.468;13.342;2023-08-31T05:28:29;9.80;;;7.13;;
4961;SDS011;2496;52.468;13.342;2023-08-31T05:30:56;8.73;;;7.13;;
4961;SDS011;2496;52.468;13.342;2023-08-31T05:33:24;7.50;;;6.80;;
4961;SDS011;2496;52.468;13.342;2023-08-31T05:35:54;10.03;;;6.67;;
4961;SDS011;2496;52.468;13.342;2023-08-31T05:38:22;12.07;;;8.00;;
4961;SDS011;2496;52.468;13.342;2023-08-31T05:40:51;12.80;;;6.50;;
4961;SDS011;2496;52.468;13.342;2023-08-31T05:43:23;8.03;;;6.93;;
4961;SDS011;2496;52.468;13.342;2023-08-31T05:45:52;11.57;;;7.10;;
4961;SDS011;2496;52.468;13.342;2023-08-31T05:48:20;7.60;;;6.80;;
4961;SDS011;2496;52.468;13.342;2023-08-31T05:50:47;7.67;;;6.40;;
4961;SDS011;2496;52.468;13.342;2023-08-31T05:53:16;9.90;;;7.50;;
4961;SDS011;2496;52.468;13.342;2023-08-31T05:55:49;11.70;;;8.10;;
4961;SDS011;2496;52.468;13.342;2023-08-31T05:58:23;9.47;;;8.50;;
4961;SDS011;2496;52.468;13.342;2023-08-31T06:00:54;9.27;;;6.87;;
4961;SDS011;2496;52.468;13.342;2023-08-31T06:03:26;9.50;;;7.50;;
4961;SDS011;2496;52.468;13.342;2023-08-31T06:06:01;7.70;;;6.90;;
4961;SDS011;2496;52.468;13.342;2023-08-31T06:08:30;8.60;;;7.70;;
4961;SDS011;2496;52.468;13.342;2023-08-31T06:11:02;9.07;;;6.80;;
4961;SDS011;2496;52.468;13.342;2023-08-31T06:13:37;10.00;;;7.00;;
4961;SDS011;2496;52.468;13.342;2023-08-31T06:16:09;8.50;;;6.60;;
4961;SDS011;2496;52.468;13.342;2023-08-31T06:18:41;9.00;;;7.10;;
4961;SDS011;2496;52.468;13.342;2023-08-31T06:21:14;10.07;;;7.30;;
4961;SDS011;2496;52.468;13.342;2023-08-31T06:23:47;13.27;;;7.90;;
4961;SDS011;2496;52.468;13.342;2023-08-31T06:26:19;13.60;;;9.17;;
4961;SDS011;2496;52.468;13.342;2023-08-31T06:28:55;8.70;;;6.93;;
4961;SDS011;2496;52.468;13.342;2023-08-31T06:31:28;9.37;;;7.10;;
4961;SDS011;2496;52.468;13.342;2023-08-31T06:34:00;10.07;;;7.37;;
4961;SDS011;2496;52.468;13.342;2023-08-31T06:36:35;11.20;;;7.23;;
4961;SDS011;2496;52.468;13.342;2023-08-31T06:39:06;10.77;;;8.03;;
4961;SDS011;2496;52.468;13.342;2023-08-31T06:41:37;11.83;;;7.77;;
4961;SDS011;2496;52.468;13.342;2023-08-31T06:44:10;12.37;;;9.10;;
4961;SDS011;2496;52.468;13.342;2023-08-31T06:46:44;10.77;;;8.20;;
4961;SDS011;2496;52.468;13.342;2023-08-31T06:49:15;14.13;;;8.03;;
4961;SDS011;2496;52.468;13.342;2023-08-31T06:51:42;8.30;;;7.23;;
4961;SDS011;2496;52.468;13.342;2023-08-31T06:54:09;9.03;;;7.60;;
4961;SDS011;2496;52.468;13.342;2023-08-31T06:56:37;11.10;;;9.40;;
4961;SDS011;2496;52.468;13.342;2023-08-31T06:59:05;11.80;;;7.70;;
4961;SDS011;2496;52.468;13.342;2023-08-31T07:01:33;10.03;;;6.93;;
4961;SDS011;2496;52.468;13.342;2023-08-31T07:04:00;12.03;;;6.87;;
4961;SDS011;2496;52.468;13.342;2023-08-31T07:06:29;8.07;;;6.67;;
4961;SDS011;2496;52.468;13.342;2023-08-31T07:08:56;10.17;;;5.83;;
4961;SDS011;2496;52.468;13.342;2023-08-31T07:11:24;10.70;;;6.80;;
4961;SDS011;2496;52.468;13.342;2023-08-31T07:13:52;11.60;;;5.73;;
4961;SDS011;2496;52.468;13.342;2023-08-31T07:16:19;10.50;;;6.30;;
4961;SDS011;2496;52.468;13.342;2023-08-31T07:18:48;11.23;;;6.37;;
4961;SDS011;2496;52.468;13.342;2023-08-31T07:21:15;6.50;;;5.50;;
4961;SDS011;2496;52.468;13.342;2023-08-31T07:23:42;7.50;;;6.00;;
4961;SDS011;2496;52.468;13.342;2023-08-31T07:26:10;8.73;;;5.80;;
4961;SDS011;2496;52.468;13.342;2023-08-31T07:28:37;8.67;;;6.60;;
4961;SDS011;2496;52.468;13.342;2023-08-31T07:31:04;10.00;;;5.80;;
4961;SDS011;2496;52.468;13.342;2023-08-31T07:33:32;8.00;;;5.97;;
4961;SDS011;2496;52.468;13.342;2023-08-31T07:36:02;11.43;;;6.03;;
4961;SDS011;2496;52.468;13.342;2023-08-31T07:38:30;11.27;;;5.50;;
4961;SDS011;2496;52.468;13.342;2023-08-31T07:40:58;6.83;;;4.90;;
4961;SDS011;2496;52.468;13.342;2023-08-31T07:43:25;8.43;;;6.37;;
4961;SDS011;2496;52.468;13.342;2023-08-31T07:45:52;11.50;;;5.87;;
4961;SDS011;2496;52.468;13.342;2023-08-31T07:48:19;7.70;;;6.73;;
4961;SDS011;2496;52.468;13.342;2023-08-31T07:50:47;11.17;;;5.57;;
4961;SDS011;2496;52.468;13.342;2023-08-31T07:53:16;6.80;;;5.20;;
4961;SDS011;2496;52.468;13.342;2023-08-31T07:55:50;12.73;;;6.43;;
4961;SDS011;2496;52.468;13.342;2023-08-31T07:58:19;10.13;;;7.10;;
4961;SDS011;2496;52.468;13.342;2023-08-31T08:00:46;12.93;;;5.90;;
4961;SDS011;2496;52.468;13.342;2023-08-31T08:03:13;9.30;;;5.10;;
4961;SDS011;2496;52.468;13.342;2023-08-31T08:05:41;6.20;;;5.43;;
4961;SDS011;2496;52.468;13.342;2023-08-31T08:08:08;6.50;;;5.30;;
4961;SDS011;2496;52.468;13.342;2023-08-31T08:10:37;11.70;;;5.47;;
4961;SDS011;2496;52.468;13.342;2023-08-31T08:13:04;7.23;;;4.47;;
4961;SDS011;2496;52.468;13.342;2023-08-31T08:15:31;6.87;;;4.60;;
4961;SDS011;2496;52.468;13.342;2023-08-31T08:17:59;6.13;;;4.07;;
4961;SDS011;2496;52.468;13.342;2023-08-31T08:20:27;7.13;;;4.23;;
4961;SDS011;2496;52.468;13.342;2023-08-31T08:22:54;4.03;;;3.60;;
4961;SDS011;2496;52.468;13.342;2023-08-31T08:25:22;6.50;;;3.60;;
4961;SDS011;2496;52.468;13.342;2023-08-31T08:27:51;10.53;;;5.37;;
4961;SDS011;2496;52.468;13.342;2023-08-31T08:30:18;9.60;;;5.60;;
4961;SDS011;2496;52.468;13.342;2023-08-31T08:32:46;8.93;;;4.20;;
4961;SDS011;2496;52.468;13.342;2023-08-31T08:35:13;5.33;;;3.60;;
4961;SDS011;2496;52.468;13.342;2023-08-31T08:37:41;4.90;;;3.70;;
4961;SDS011;2496;52.468;13.342;2023-08-31T08:40:09;6.77;;;3.90;;
4961;SDS011;2496;52.468;13.342;2023-08-31T08:42:38;10.20;;;3.83;;
4961;SDS011;2496;52.468;13.342;2023-08-31T08:45:08;3.90;;;2.97;;
4961;SDS011;2496;52.468;13.342;2023-08-31T08:47:35;5.13;;;3.27;;
4961;SDS011;2496;52.468;13.342;2023-08-31T08:50:03;4.83;;;3.77;;
4961;SDS011;2496;52.468;13.342;2023-08-31T08:52:31;5.63;;;2.97;;
4961;SDS011;2496;52.468;13.342;2023-08-31T08:54:58;3.33;;;2.53;;
4961;SDS011;2496;52.468;13.342;2023-08-31T08:57:30;4.07;;;3.07;;
4961;SDS011;2496;52.468;13.342;2023-08-31T08:59:57;9.57;;;3.50;;
4961;SDS011;2496;52.468;13.342;2023-08-31T09:02:26;7.50;;;2.60;;
4961;SDS011;2496;52.468;13.342;2023-08-31T09:04:54;20.37;;;3.10;;
4961;SDS011;2496;52.468;13.342;2023-08-31T09:07:21;9.00;;;2.80;;
4961;SDS011;2496;52.468;13.342;2023-08-31T09:09:49;3.50;;;2.50;;
4961;SDS011;2496;52.468;13.342;2023-08-31T09:12:17;19.33;;;3.53;;
4961;SDS011;2496;52.468;13.342;2023-08-31T09:14:56;11.73;;;3.30;;
4961;SDS011;2496;52.468;13.342;2023-08-31T09:17:23;5.30;;;2.90;;
4961;SDS011;2496;52.468;13.342;2023-08-31T09:19:59;3.83;;;2.53;;
4961;SDS011;2496;52.468;13.342;2023-08-31T09:22:28;14.60;;;2.87;;
4961;SDS011;2496;52.468;13.342;2023-08-31T09:24:56;8.33;;;3.50;;
4961;SDS011;2496;52.468;13.342;2023-08-31T09:27:23;4.77;;;2.70;;
4961;SDS011;2496;52.468;13.342;2023-08-31T09:29:50;4.63;;;2.80;;
4961;SDS011;2496;52.468;13.342;2023-08-31T09:32:17;3.00;;;2.33;;
4961;SDS011;2496;52.468;13.342;2023-08-31T09:34:45;18.30;;;3.03;;
4961;SDS011;2496;52.468;13.342;2023-08-31T09:37:15;4.33;;;3.07;;
4961;SDS011;2496;52.468;13.342;2023-08-31T09:39:42;6.60;;;4.53;;
4961;SDS011;2496;52.468;13.342;2023-08-31T09:42:09;7.80;;;2.47;;
4961;SDS011;2496;52.468;13.342;2023-08-31T09:44:39;2.87;;;2.10;;
4961;SDS011;2496;52.468;13.342;2023-08-31T09:47:07;3.73;;;2.60;;
4961;SDS011;2496;52.468;13.342;2023-08-31T09:49:35;4.43;;;2.50;;
4961;SDS011;2496;52.468;13.342;2023-08-31T09:52:04;3.60;;;2.13;;
4961;SDS011;2496;52.468;13.342;2023-08-31T09:54:34;3.53;;;2.03;;
4961;SDS011;2496;52.468;13.342;2023-08-31T09:57:02;3.70;;;2.00;;
4961;SDS011;2496;52.468;13.342;2023-08-31T09:59:29;5.03;;;2.40;;
4961;SDS011;2496;52.468;13.342;2023-08-31T10:01:59;2.40;;;1.90;;
4961;SDS011;2496;52.468;13.342;2023-08-31T10:04:29;7.20;;;3.07;;
4961;SDS011;2496;52.468;13.342;2023-08-31T10:06:58;7.10;;;2.27;;
4961;SDS011;2496;52.468;13.342;2023-08-31T10:09:26;3.70;;;2.70;;
4961;SDS011;2496;52.468;13.342;2023-08-31T10:11:55;4.93;;;1.93;;
4961;SDS011;2496;52.468;13.342;2023-08-31T10:14:23;5.17;;;1.80;;
4961;SDS011;2496;52.468;13.342;2023-08-31T10:16:50;4.50;;;2.07;;
4961;SDS011;2496;52.468;13.342;2023-08-31T10:19:18;6.30;;;2.30;;
4961;SDS011;2496;52.468;13.342;2023-08-31T10:21:45;4.80;;;2.33;;
4961;SDS011;2496;52.468;13.342;2023-08-31T10:24:13;7.73;;;2.37;;
4961;SDS011;2496;52.468;13.342;2023-08-31T10:26:40;5.20;;;2.40;;
4961;SDS011;2496;52.468;13.342;2023-08-31T10:29:24;4.77;;;2.10;;
4961;SDS011;2496;52.468;13.342;2023-08-31T10:31:52;5.47;;;2.73;;
4961;SDS011;2496;52.468;13.342;2023-08-31T10:34:19;9.03;;;3.07;;
4961;SDS011;2496;52.468;13.342;2023-08-31T10:37:01;10.87;;;3.97;;
4961;SDS011;2496;52.468;13.342;2023-08-31T10:39:37;2.77;;;1.80;;
4961;SDS011;2496;52.468;13.342;2023-08-31T10:42:04;9.33;;;3.07;;
4961;SDS011;2496;52.468;13.342;2023-08-31T10:44:33;5.17;;;2.57;;
4961;SDS011;2496;52.468;13.342;2023-08-31T10:47:02;7.43;;;2.63;;
4961;SDS011;2496;52.468;13.342;2023-08-31T10:49:30;9.80;;;2.53;;
4961;SDS011;2496;52.468;13.342;2023-08-31T10:52:00;8.03;;;2.80;;
4961;SDS011;2496;52.468;13.342;2023-08-31T10:54:41;7.63;;;2.70;;
4961;SDS011;2496;52.468;13.342;2023-08-31T10:57:09;4.97;;;2.60;;
4961;SDS011;2496;52.468;13.342;2023-08-31T10:59:42;4.07;;;2.63;;
4961;SDS011;2496;52.468;13.342;2023-08-31T11:02:09;6.47;;;3.90;;
4961;SDS011;2496;52.468;13.342;2023-08-31T11:07:19;8.37;;;3.03;;
4961;SDS011;2496;52.468;13.342;2023-08-31T11:09:46;6.07;;;3.57;;
4961;SDS011;2496;52.468;13.342;2023-08-31T11:12:13;7.40;;;3.03;;
4961;SDS011;2496;52.468;13.342;2023-08-31T11:14:42;4.10;;;3.40;;
4961;SDS011;2496;52.468;13.342;2023-08-31T11:17:09;5.70;;;3.20;;
4961;SDS011;2496;52.468;13.342;2023-08-31T11:19:37;4.27;;;2.73;;
4961;SDS011;2496;52.468;13.342;2023-08-31T11:22:05;4.50;;;2.40;;
4961;SDS011;2496;52.468;13.342;2023-08-31T11:24:35;5.90;;;2.57;;
4961;SDS011;2496;52.468;13.342;2023-08-31T11:27:02;3.20;;;2.40;;
4961;SDS011;2496;52.468;13.342;2023-08-31T11:29:29;4.97;;;2.77;;
4961;SDS011;2496;52.468;13.342;2023-08-31T11:31:58;4.47;;;2.80;;
4961;SDS011;2496;52.468;13.342;2023-08-31T11:34:25;14.03;;;5.60;;
4961;SDS011;2496;52.468;13.342;2023-08-31T11:36:52;14.53;;;9.10;;
4961;SDS011;2496;52.468;13.342;2023-08-31T11:39:20;7.77;;;3.83;;
4961;SDS011;2496;52.468;13.342;2023-08-31T11:41:47;7.30;;;3.10;;
4961;SDS011;2496;52.468;13.342;2023-08-31T11:44:15;6.40;;;2.77;;
4961;SDS011;2496;52.468;13.342;2023-08-31T11:46:43;3.30;;;2.40;;
4961;SDS011;2496;52.468;13.342;2023-08-31T11:49:12;3.30;;;2.57;;
4961;SDS011;2496;52.468;13.342;2023-08-31T11:51:40;4.50;;;2.83;;
4961;SDS011;2496;52.468;13.342;2023-08-31T11:54:08;6.33;;;2.37;;
4961;SDS011;2496;52.468;13.342;2023-08-31T11:56:40;6.40;;;2.50;;
4961;SDS011;2496;52.468;13.342;2023-08-31T11:59:08;4.83;;;3.13;;
4961;SDS011;2496;52.468;13.342;2023-08-31T12:01:37;7.57;;;3.33;;
4961;SDS011;2496;52.468;13.342;2023-08-31T12:04:13;4.60;;;3.20;;
4961;SDS011;2496;52.468;13.342;2023-08-31T12:06:41;10.20;;;3.70;;
4961;SDS011;2496;52.468;13.342;2023-08-31T12:09:09;4.70;;;3.60;;
4961;SDS011;2496;52.468;13.342;2023-08-31T12:11:36;8.27;;;3.43;;
4961;SDS011;2496;52.468;13.342;2023-08-31T12:14:17;6.67;;;2.87;;
4961;SDS011;2496;52.468;13.342;2023-08-31T12:16:45;7.07;;;3.37;;
4961;SDS011;2496;52.468;13.342;2023-08-31T12:19:14;4.23;;;3.27;;
4961;SDS011;2496;52.468;13.342;2023-08-31T12:21:42;7.13;;;3.50;;
4961;SDS011;2496;52.468;13.342;2023-08-31T12:24:09;5.40;;;2.80;;
4961;SDS011;2496;52.468;13.342;2023-08-31T12:26:37;4.50;;;2.80;;
4961;SDS011;2496;52.468;13.342;2023-08-31T12:29:04;7.83;;;3.63;;
4961;SDS011;2496;52.468;13.342;2023-08-31T12:31:32;4.13;;;3.27;;
4961;SDS011;2496;52.468;13.342;2023-08-31T12:33:59;6.17;;;3.47;;
4961;SDS011;2496;52.468;13.342;2023-08-31T12:36:32;10.43;;;4.87;;
4961;SDS011;2496;52.468;13.342;2023-08-31T12:39:02;6.17;;;3.80;;
4961;SDS011;2496;52.468;13.342;2023-08-31T12:41:32;6.20;;;2.60;;
4961;SDS011;2496;52.468;13.342;2023-08-31T12:43:59;4.23;;;2.50;;
4961;SDS011;2496;52.468;13.342;2023-08-31T12:46:28;3.27;;;2.30;;
4961;SDS011;2496;52.468;13.342;2023-08-31T12:48:55;4.03;;;3.00;;
4961;SDS011;2496;52.468;13.342;2023-08-31T12:51:23;4.50;;;3.13;;
4961;SDS011;2496;52.468;13.342;2023-08-31T12:53:51;2.97;;;1.93;;
4961;SDS011;2496;52.468;13.342;2023-08-31T12:56:18;4.20;;;2.77;;
4961;SDS011;2496;52.468;13.342;2023-08-31T12:58:48;3.00;;;2.10;;
4961;SDS011;2496;52.468;13.342;2023-08-31T13:01:16;2.93;;;2.50;;
4961;SDS011;2496;52.468;13.342;2023-08-31T13:03:43;2.23;;;2.00;;
4961;SDS011;2496;52.468;13.342;2023-08-31T13:06:10;10.23;;;2.33;;
4961;SDS011;2496;52.468;13.342;2023-08-31T13:08:38;3.53;;;2.70;;
4961;SDS011;2496;52.468;13.342;2023-08-31T13:11:06;3.73;;;2.00;;
4961;SDS011;2496;52.468;13.342;2023-08-31T13:13:33;3.73;;;2.50;;
4961;SDS011;2496;52.468;13.342;2023-08-31T13:16:01;2.90;;;1.93;;
4961;SDS011;2496;52.468;13.342;2023-08-31T13:18:28;4.50;;;1.93;;
4961;SDS011;2496;52.468;13.342;2023-08-31T13:20:56;5.70;;;2.10;;
4961;SDS011;2496;52.468;13.342;2023-08-31T13:23:23;4.60;;;2.80;;
4961;SDS011;2496;52.468;13.342;2023-08-31T13:25:51;3.57;;;2.00;;
4961;SDS011;2496;52.468;13.342;2023-08-31T13:28:19;5.13;;;2.03;;
4961;SDS011;2496;52.468;13.342;2023-08-31T13:30:47;9.03;;;2.03;;
4961;SDS011;2496;52.468;13.342;2023-08-31T13:33:14;2.50;;;2.10;;
4961;SDS011;2496;52.468;13.342;2023-08-31T13:35:42;2.50;;;1.87;;
4961;SDS011;2496;52.468;13.342;2023-08-31T13:38:09;4.00;;;2.50;;
4961;SDS011;2496;52.468;13.342;2023-08-31T13:40:37;5.63;;;2.27;;
4961;SDS011;2496;52.468;13.342;2023-08-31T13:43:04;4.50;;;2.77;;
4961;SDS011;2496;52.468;13.342;2023-08-31T13:45:33;2.20;;;2.00;;
4961;SDS011;2496;52.468;13.342;2023-08-31T13:48:01;1.93;;;1.73;;
4961;SDS011;2496;52.468;13.342;2023-08-31T13:50:29;5.30;;;2.00;;
4961;SDS011;2496;52.468;13.342;2023-08-31T13:52:56;6.47;;;2.50;;
4961;SDS011;2496;52.468;13.342;2023-08-31T13:55:23;2.30;;;1.90;;
4961;SDS011;2496;52.468;13.342;2023-08-31T13:57:52;3.43;;;2.20;;
4961;SDS011;2496;52.468;13.342;2023-08-31T14:00:19;4.03;;;2.63;;
4961;SDS011;2496;52.468;13.342;2023-08-31T14:02:48;2.50;;;2.20;;
4961;SDS011;2496;52.468;13.342;2023-08-31T14:05:15;3.10;;;2.43;;
4961;SDS011;2496;52.468;13.342;2023-08-31T14:07:43;5.20;;;3.67;;
4961;SDS011;2496;52.468;13.342;2023-08-31T14:10:10;2.93;;;2.20;;
4961;SDS011;2496;52.468;13.342;2023-08-31T14:12:37;2.97;;;2.27;;
4961;SDS011;2496;52.468;13.342;2023-08-31T14:15:05;4.87;;;2.37;;
4961;SDS011;2496;52.468;13.342;2023-08-31T14:17:33;5.43;;;2.90;;
4961;SDS011;2496;52.468;13.342;2023-08-31T14:20:02;3.40;;;1.70;;
4961;SDS011;2496;52.468;13.342;2023-08-31T14:22:32;3.73;;;1.50;;
4961;SDS011;2496;52.468;13.342;2023-08-31T14:25:00;4.80;;;1.97;;
4961;SDS011;2496;52.468;13.342;2023-08-31T14:27:28;3.63;;;1.90;;
4961;SDS011;2496;52.468;13.342;2023-08-31T14:29:56;1.63;;;1.40;;
4961;SDS011;2496;52.468;13.342;2023-08-31T14:32:24;7.83;;;1.80;;
4961;SDS011;2496;52.468;13.342;2023-08-31T14:34:53;5.43;;;1.93;;
4961;SDS011;2496;52.468;13.342;2023-08-31T14:37:23;5.30;;;1.50;;
4961;SDS011;2496;52.468;13.342;2023-08-31T14:39:50;3.17;;;1.83;;
4961;SDS011;2496;52.468;13.342;2023-08-31T14:42:18;6.60;;;2.93;;
4961;SDS011;2496;52.468;13.342;2023-08-31T14:44:46;5.13;;;3.50;;
4961;SDS011;2496;52.468;13.342;2023-08-31T14:47:14;5.43;;;2.30;;
4961;SDS011;2496;52.468;13.342;2023-08-31T14:49:42;2.60;;;1.90;;
4961;SDS011;2496;52.468;13.342;2023-08-31T14:52:09;1.80;;;1.47;;
4961;SDS011;2496;52.468;13.342;2023-08-31T14:54:39;5.10;;;1.73;;
4961;SDS011;2496;52.468;13.342;2023-08-31T14:57:07;2.33;;;1.40;;
4961;SDS011;2496;52.468;13.342;2023-08-31T14:59:35;2.27;;;1.90;;
4961;SDS011;2496;52.468;13.342;2023-08-31T15:02:02;3.00;;;1.87;;
4961;SDS011;2496;52.468;13.342;2023-08-31T15:04:31;3.17;;;2.00;;
4961;SDS011;2496;52.468;13.342;2023-08-31T15:06:58;1.60;;;1.30;;
4961;SDS011;2496;52.468;13.342;2023-08-31T15:09:26;4.33;;;1.73;;
4961;SDS011;2496;52.468;13.342;2023-08-31T15:11:55;2.13;;;1.90;;